sensor_id;sensor_type;location;lat;lon;timestamp;pressure;altitude;pressure_sealevel;temperature;humidity
5812;BME280;2932;52.400;9.558;2023-07-28T00:01:51;99683.56;;;19.84;94.55
5812;BME280;2932;52.400;9.558;2023-07-28T00:04:17;99677.66;;;19.79;95.04
5812;BME280;2932;52.400;9.558;2023-07-28T00:06:42;99686.22;;;19.72;95.13
5812;BME280;2932;52.400;9.558;2023-07-28T00:09:08;99682.47;;;19.78;94.77
5812;BME280;2932;52.400;9.558;2023-07-28T00:11:33;99683.91;;;19.67;95.03
5812;BME280;2932;52.400;9.558;2023-07-28T00:13:58;99676.63;;;19.69;95.42
5812;BME280;2932;52.400;9.558;2023-07-28T00:16:24;99679.88;;;19.68;95.37
5812;BME280;2932;52.400;9.558;2023-07-28T00:18:49;99680.00;;;19.60;95.15
5812;BME280;2932;52.400;9.558;2023-07-28T00:21:14;99683.28;;;19.79;94.89
5812;BME280;2932;52.400;9.558;2023-07-28T00:23:40;99682.25;;;19.69;94.71
5812;BME280;2932;52.400;9.558;2023-07-28T00:26:06;99689.16;;;19.64;95.49
5812;BME280;2932;52.400;9.558;2023-07-28T00:28:31;99679.41;;;19.49;96.67
5812;BME280;2932;52.400;9.558;2023-07-28T00:30:56;99682.75;;;19.64;95.95
5812;BME280;2932;52.400;9.558;2023-07-28T00:33:22;99681.03;;;19.70;95.87
5812;BME280;2932;52.400;9.558;2023-07-28T00:35:47;99680.41;;;19.39;96.77
5812;BME280;2932;52.400;9.558;2023-07-28T00:38:12;99687.44;;;19.51;96.23
5812;BME280;2932;52.400;9.558;2023-07-28T00:40:38;99683.06;;;19.46;96.55
5812;BME280;2932;52.400;9.558;2023-07-28T00:43:03;99688.09;;;19.35;97.52
5812;BME280;2932;52.400;9.558;2023-07-28T00:45:29;99680.38;;;19.62;96.17
5812;BME280;2932;52.400;9.558;2023-07-28T00:47:56;99688.03;;;19.39;96.60
5812;BME280;2932;52.400;9.558;2023-07-28T00:50:25;99693.28;;;19.37;97.10
5812;BME280;2932;52.400;9.558;2023-07-28T00:52:51;99692.25;;;19.70;95.82
5812;BME280;2932;52.400;9.558;2023-07-28T00:55:16;99693.19;;;19.63;95.71
5812;BME280;2932;52.400;9.558;2023-07-28T00:57:42;99688.72;;;19.66;95.28
5812;BME280;2932;52.400;9.558;2023-07-28T01:00:08;99692.03;;;19.61;95.08
5812;BME280;2932;52.400;9.558;2023-07-28T01:02:34;99693.44;;;19.49;96.12
5812;BME280;2932;52.400;9.558;2023-07-28T01:05:01;99695.59;;;19.42;96.31
5812;BME280;2932;52.400;9.558;2023-07-28T01:07:30;99684.94;;;19.56;95.62
5812;BME280;2932;52.400;9.558;2023-07-28T01:10:03;99677.38;;;19.53;95.65
5812;BME280;2932;52.400;9.558;2023-07-28T01:12:30;99678.94;;;19.54;95.72
5812;BME280;2932;52.400;9.558;2023-07-28T01:14:56;99675.72;;;19.56;95.64
5812;BME280;2932;52.400;9.558;2023-07-28T01:17:21;99678.31;;;19.43;96.14
5812;BME280;2932;52.400;9.558;2023-07-28T01:19:49;99678.38;;;19.63;96.13
5812;BME280;2932;52.400;9.558;2023-07-28T01:27:34;99677.84;;;19.48;96.70
5812;BME280;2932;52.400;9.558;2023-07-28T01:30:00;99683.81;;;19.27;97.44
5812;BME280;2932;52.400;9.558;2023-07-28T01:32:26;99674.56;;;19.53;96.98
5812;BME280;2932;52.400;9.558;2023-07-28T01:34:51;99685.94;;;19.43;97.00
5812;BME280;2932;52.400;9.558;2023-07-28T01:37:16;99684.94;;;19.56;96.77
5812;BME280;2932;52.400;9.558;2023-07-28T01:39:42;99690.41;;;19.40;96.54
5812;BME280;2932;52.400;9.558;2023-07-28T01:42:07;99687.00;;;19.52;96.46
5812;BME280;2932;52.400;9.558;2023-07-28T01:44:32;99687.81;;;19.53;96.67
5812;BME280;2932;52.400;9.558;2023-07-28T01:46:57;99685.47;;;19.48;96.24
5812;BME280;2932;52.400;9.558;2023-07-28T01:49:23;99685.19;;;19.62;96.66
5812;BME280;2932;52.400;9.558;2023-07-28T01:51:48;99683.34;;;19.55;96.21
5812;BME280;2932;52.400;9.558;2023-07-28T01:54:13;99690.53;;;19.56;96.39
5812;BME280;2932;52.400;9.558;2023-07-28T01:56:39;99674.50;;;19.57;96.16
5812;BME280;2932;52.400;9.558;2023-07-28T01:59:04;99684.69;;;19.67;95.51
5812;BME280;2932;52.400;9.558;2023-07-28T02:01:29;99683.28;;;19.59;96.35
5812;BME280;2932;52.400;9.558;2023-07-28T02:03:54;99692.59;;;19.29;96.84
5812;BME280;2932;52.400;9.558;2023-07-28T02:06:20;99687.31;;;19.58;95.52
5812;BME280;2932;52.400;9.558;2023-07-28T02:08:45;99677.38;;;19.53;96.08
5812;BME280;2932;52.400;9.558;2023-07-28T02:11:10;99680.53;;;19.55;96.03
5812;BME280;2932;52.400;9.558;2023-07-28T02:13:36;99680.97;;;19.54;95.53
5812;BME280;2932;52.400;9.558;2023-07-28T02:16:01;99678.69;;;19.45;95.89
5812;BME280;2932;52.400;9.558;2023-07-28T02:18:26;99681.97;;;19.63;96.10
5812;BME280;2932;52.400;9.558;2023-07-28T02:20:52;99681.59;;;19.61;95.34
5812;BME280;2932;52.400;9.558;2023-07-28T02:23:17;99682.81;;;19.60;96.18
5812;BME280;2932;52.400;9.558;2023-07-28T02:25:42;99685.16;;;19.42;96.29
5812;BME280;2932;52.400;9.558;2023-07-28T02:28:10;99682.47;;;19.58;95.90
5812;BME280;2932;52.400;9.558;2023-07-28T02:30:35;99698.44;;;19.38;96.48
5812;BME280;2932;52.400;9.558;2023-07-28T02:33:00;99681.91;;;19.44;96.44
5812;BME280;2932;52.400;9.558;2023-07-28T02:35:26;99676.09;;;19.58;95.99
5812;BME280;2932;52.400;9.558;2023-07-28T02:37:51;99684.22;;;19.49;96.23
5812;BME280;2932;52.400;9.558;2023-07-28T02:40:16;99672.81;;;19.59;95.49
5812;BME280;2932;52.400;9.558;2023-07-28T02:42:42;99679.13;;;19.44;95.83
5812;BME280;2932;52.400;9.558;2023-07-28T02:45:07;99680.81;;;19.61;95.31
5812;BME280;2932;52.400;9.558;2023-07-28T02:47:34;99697.09;;;19.46;96.08
5812;BME280;2932;52.400;9.558;2023-07-28T02:50:00;99694.03;;;19.60;95.63
5812;BME280;2932;52.400;9.558;2023-07-28T02:52:25;99699.19;;;19.42;96.29
5812;BME280;2932;52.400;9.558;2023-07-28T02:54:50;99698.31;;;19.45;96.21
5812;BME280;2932;52.400;9.558;2023-07-28T02:57:16;99706.44;;;19.40;96.16
5812;BME280;2932;52.400;9.558;2023-07-28T02:59:41;99703.06;;;19.52;95.87
5812;BME280;2932;52.400;9.558;2023-07-28T03:02:07;99696.06;;;19.60;95.53
5812;BME280;2932;52.400;9.558;2023-07-28T03:04:32;99708.66;;;19.72;95.11
5812;BME280;2932;52.400;9.558;2023-07-28T03:06:57;99710.28;;;19.49;95.36
5812;BME280;2932;52.400;9.558;2023-07-28T03:09:23;99708.66;;;19.52;95.64
5812;BME280;2932;52.400;9.558;2023-07-28T03:11:48;99710.88;;;19.37;95.89
5812;BME280;2932;52.400;9.558;2023-07-28T03:14:13;99704.56;;;19.56;95.71
5812;BME280;2932;52.400;9.558;2023-07-28T03:16:40;99697.75;;;19.57;95.52
5812;BME280;2932;52.400;9.558;2023-07-28T03:19:06;99703.41;;;19.54;95.50
5812;BME280;2932;52.400;9.558;2023-07-28T03:21:31;99709.28;;;19.59;95.23
5812;BME280;2932;52.400;9.558;2023-07-28T03:23:57;99704.03;;;19.61;95.64
5812;BME280;2932;52.400;9.558;2023-07-28T03:26:22;99713.09;;;19.49;95.88
5812;BME280;2932;52.400;9.558;2023-07-28T03:28:47;99710.44;;;19.62;95.52
5812;BME280;2932;52.400;9.558;2023-07-28T03:31:12;99719.63;;;19.43;95.35
5812;BME280;2932;52.400;9.558;2023-07-28T03:33:38;99727.03;;;19.56;95.56
5812;BME280;2932;52.400;9.558;2023-07-28T03:36:03;99719.13;;;19.48;95.76
5812;BME280;2932;52.400;9.558;2023-07-28T03:38:28;99723.41;;;19.56;95.71
5812;BME280;2932;52.400;9.558;2023-07-28T03:40:54;99728.25;;;19.55;95.45
5812;BME280;2932;52.400;9.558;2023-07-28T03:43:20;99736.09;;;19.41;96.01
5812;BME280;2932;52.400;9.558;2023-07-28T03:45:46;99726.88;;;19.40;96.89
5812;BME280;2932;52.400;9.558;2023-07-28T03:48:11;99722.19;;;19.57;96.05
5812;BME280;2932;52.400;9.558;2023-07-28T03:50:36;99724.13;;;19.60;95.67
5812;BME280;2932;52.400;9.558;2023-07-28T03:53:02;99722.72;;;19.48;96.21
5812;BME280;2932;52.400;9.558;2023-07-28T03:55:27;99716.00;;;19.65;95.37
5812;BME280;2932;52.400;9.558;2023-07-28T03:57:52;99723.09;;;19.50;95.38
5812;BME280;2932;52.400;9.558;2023-07-28T04:00:18;99731.81;;;19.32;96.52
5812;BME280;2932;52.400;9.558;2023-07-28T04:02:43;99723.28;;;19.40;96.47
5812;BME280;2932;52.400;9.558;2023-07-28T04:05:08;99736.94;;;19.38;96.30
5812;BME280;2932;52.400;9.558;2023-07-28T04:07:34;99728.66;;;19.54;96.73
5812;BME280;2932;52.400;9.558;2023-07-28T04:09:59;99733.53;;;19.50;96.34
5812;BME280;2932;52.400;9.558;2023-07-28T04:12:25;99731.50;;;19.50;96.45
5812;BME280;2932;52.400;9.558;2023-07-28T04:14:50;99737.97;;;19.47;96.37
5812;BME280;2932;52.400;9.558;2023-07-28T04:17:15;99736.75;;;19.48;96.36
5812;BME280;2932;52.400;9.558;2023-07-28T04:19:40;99736.88;;;19.64;95.57
5812;BME280;2932;52.400;9.558;2023-07-28T04:22:06;99738.97;;;19.80;95.39
5812;BME280;2932;52.400;9.558;2023-07-28T04:24:31;99737.66;;;19.65;95.18
5812;BME280;2932;52.400;9.558;2023-07-28T04:26:57;99726.66;;;19.74;94.65
5812;BME280;2932;52.400;9.558;2023-07-28T04:29:22;99741.03;;;19.56;95.05
5812;BME280;2932;52.400;9.558;2023-07-28T04:31:47;99737.34;;;19.59;94.88
5812;BME280;2932;52.400;9.558;2023-07-28T04:34:13;99742.81;;;19.90;94.28
5812;BME280;2932;52.400;9.558;2023-07-28T04:36:38;99745.75;;;19.83;93.81
5812;BME280;2932;52.400;9.558;2023-07-28T04:39:03;99743.38;;;19.81;93.97
5812;BME280;2932;52.400;9.558;2023-07-28T04:41:29;99746.13;;;19.85;93.93
5812;BME280;2932;52.400;9.558;2023-07-28T04:43:54;99743.34;;;19.61;94.36
5812;BME280;2932;52.400;9.558;2023-07-28T04:46:19;99747.34;;;19.84;94.17
5812;BME280;2932;52.400;9.558;2023-07-28T04:48:46;99749.28;;;19.87;93.76
5812;BME280;2932;52.400;9.558;2023-07-28T04:51:11;99751.38;;;19.59;94.65
5812;BME280;2932;52.400;9.558;2023-07-28T04:53:36;99757.13;;;19.76;95.00
5812;BME280;2932;52.400;9.558;2023-07-28T04:56:02;99754.81;;;19.71;95.04
5812;BME280;2932;52.400;9.558;2023-07-28T04:58:28;99754.25;;;19.79;94.35
5812;BME280;2932;52.400;9.558;2023-07-28T05:00:54;99758.94;;;19.86;94.45
5812;BME280;2932;52.400;9.558;2023-07-28T05:03:19;99755.97;;;19.73;95.04
5812;BME280;2932;52.400;9.558;2023-07-28T05:05:44;99778.91;;;19.68;94.93
5812;BME280;2932;52.400;9.558;2023-07-28T05:08:10;99777.09;;;19.58;95.59
5812;BME280;2932;52.400;9.558;2023-07-28T05:10:35;99771.56;;;19.74;94.75
5812;BME280;2932;52.400;9.558;2023-07-28T05:13:01;99770.91;;;19.67;94.56
5812;BME280;2932;52.400;9.558;2023-07-28T05:15:26;99765.53;;;19.76;94.63
5812;BME280;2932;52.400;9.558;2023-07-28T05:17:51;99769.75;;;19.64;95.36
5812;BME280;2932;52.400;9.558;2023-07-28T05:20:17;99776.09;;;19.68;95.60
5812;BME280;2932;52.400;9.558;2023-07-28T05:22:42;99775.03;;;19.82;94.81
5812;BME280;2932;52.400;9.558;2023-07-28T05:25:08;99774.06;;;19.92;94.35
5812;BME280;2932;52.400;9.558;2023-07-28T05:27:34;99785.31;;;19.69;94.88
5812;BME280;2932;52.400;9.558;2023-07-28T05:29:59;99785.94;;;19.56;95.80
5812;BME280;2932;52.400;9.558;2023-07-28T05:32:24;99786.09;;;19.69;95.17
5812;BME280;2932;52.400;9.558;2023-07-28T05:34:50;99793.59;;;19.76;95.30
5812;BME280;2932;52.400;9.558;2023-07-28T05:37:15;99797.38;;;19.65;95.28
5812;BME280;2932;52.400;9.558;2023-07-28T05:39:40;99798.72;;;19.81;94.97
5812;BME280;2932;52.400;9.558;2023-07-28T05:42:06;99798.00;;;19.77;95.17
5812;BME280;2932;52.400;9.558;2023-07-28T05:44:31;99804.75;;;19.79;95.18
5812;BME280;2932;52.400;9.558;2023-07-28T05:46:57;99805.06;;;19.85;94.98
5812;BME280;2932;52.400;9.558;2023-07-28T05:49:22;99815.13;;;19.82;94.49
5812;BME280;2932;52.400;9.558;2023-07-28T05:51:47;99798.91;;;19.93;94.46
5812;BME280;2932;52.400;9.558;2023-07-28T05:54:13;99807.16;;;19.81;95.19
5812;BME280;2932;52.400;9.558;2023-07-28T05:56:41;99806.41;;;19.77;95.90
5812;BME280;2932;52.400;9.558;2023-07-28T05:59:07;99809.75;;;19.91;94.60
5812;BME280;2932;52.400;9.558;2023-07-28T06:01:32;99812.28;;;20.06;94.73
5812;BME280;2932;52.400;9.558;2023-07-28T06:03:58;99823.69;;;19.98;94.78
5812;BME280;2932;52.400;9.558;2023-07-28T06:06:25;99816.00;;;19.79;95.34
5812;BME280;2932;52.400;9.558;2023-07-28T06:08:51;99822.53;;;19.96;95.08
5812;BME280;2932;52.400;9.558;2023-07-28T06:11:16;99818.06;;;19.98;94.60
5812;BME280;2932;52.400;9.558;2023-07-28T06:13:41;99808.38;;;19.99;95.14
5812;BME280;2932;52.400;9.558;2023-07-28T06:16:06;99822.09;;;19.97;95.09
5812;BME280;2932;52.400;9.558;2023-07-28T06:18:32;99824.69;;;20.08;94.71
5812;BME280;2932;52.400;9.558;2023-07-28T06:20:57;99823.31;;;20.16;94.32
5812;BME280;2932;52.400;9.558;2023-07-28T06:23:22;99826.91;;;19.97;94.97
5812;BME280;2932;52.400;9.558;2023-07-28T06:25:49;99829.28;;;19.98;94.56
5812;BME280;2932;52.400;9.558;2023-07-28T06:28:14;99836.06;;;20.21;93.91
5812;BME280;2932;52.400;9.558;2023-07-28T06:30:40;99834.13;;;20.18;93.59
5812;BME280;2932;52.400;9.558;2023-07-28T06:33:06;99839.63;;;20.02;94.63
5812;BME280;2932;52.400;9.558;2023-07-28T06:35:32;99839.28;;;19.99;94.90
5812;BME280;2932;52.400;9.558;2023-07-28T06:37:57;99836.84;;;20.02;94.75
5812;BME280;2932;52.400;9.558;2023-07-28T06:40:22;99842.75;;;20.07;94.74
5812;BME280;2932;52.400;9.558;2023-07-28T06:42:48;99838.66;;;20.12;94.88
5812;BME280;2932;52.400;9.558;2023-07-28T06:45:13;99850.41;;;20.26;93.93
5812;BME280;2932;52.400;9.558;2023-07-28T06:47:39;99841.41;;;20.15;93.92
5812;BME280;2932;52.400;9.558;2023-07-28T06:50:05;99853.13;;;20.10;94.62
5812;BME280;2932;52.400;9.558;2023-07-28T06:52:31;99852.09;;;20.01;95.01
5812;BME280;2932;52.400;9.558;2023-07-28T06:54:56;99855.69;;;20.01;95.78
5812;BME280;2932;52.400;9.558;2023-07-28T06:57:22;99859.38;;;19.75;96.41
5812;BME280;2932;52.400;9.558;2023-07-28T06:59:48;99861.31;;;20.01;96.14
5812;BME280;2932;52.400;9.558;2023-07-28T07:02:13;99863.97;;;19.88;95.50
5812;BME280;2932;52.400;9.558;2023-07-28T07:04:38;99870.91;;;20.04;95.45
5812;BME280;2932;52.400;9.558;2023-07-28T07:07:04;99863.00;;;19.98;95.32
5812;BME280;2932;52.400;9.558;2023-07-28T07:09:29;99862.19;;;19.98;95.49
5812;BME280;2932;52.400;9.558;2023-07-28T07:11:54;99873.75;;;20.00;95.19
5812;BME280;2932;52.400;9.558;2023-07-28T07:14:20;99871.09;;;19.93;95.60
5812;BME280;2932;52.400;9.558;2023-07-28T07:16:45;99876.03;;;20.09;95.10
5812;BME280;2932;52.400;9.558;2023-07-28T07:19:10;99866.72;;;20.35;93.96
5812;BME280;2932;52.400;9.558;2023-07-28T07:21:36;99880.63;;;19.99;94.77
5812;BME280;2932;52.400;9.558;2023-07-28T07:24:05;99890.84;;;20.33;94.51
5812;BME280;2932;52.400;9.558;2023-07-28T07:26:30;99878.44;;;20.30;93.91
5812;BME280;2932;52.400;9.558;2023-07-28T07:28:56;99880.88;;;20.28;93.77
5812;BME280;2932;52.400;9.558;2023-07-28T07:31:22;99885.91;;;20.17;94.16
5812;BME280;2932;52.400;9.558;2023-07-28T07:33:48;99883.44;;;20.42;93.54
5812;BME280;2932;52.400;9.558;2023-07-28T07:36:15;99873.28;;;20.48;93.03
5812;BME280;2932;52.400;9.558;2023-07-28T07:38:41;99883.06;;;20.40;93.51
5812;BME280;2932;52.400;9.558;2023-07-28T07:41:07;99889.19;;;20.35;93.79
5812;BME280;2932;52.400;9.558;2023-07-28T07:43:33;99885.13;;;20.59;92.73
5812;BME280;2932;52.400;9.558;2023-07-28T07:45:58;99885.28;;;20.29;92.81
5812;BME280;2932;52.400;9.558;2023-07-28T07:48:23;99890.22;;;20.45;93.03
5812;BME280;2932;52.400;9.558;2023-07-28T07:50:49;99899.50;;;20.42;93.28
5812;BME280;2932;52.400;9.558;2023-07-28T07:53:14;99888.72;;;20.60;92.70
5812;BME280;2932;52.400;9.558;2023-07-28T07:55:39;99903.34;;;20.51;92.81
5812;BME280;2932;52.400;9.558;2023-07-28T07:58:05;99905.94;;;20.62;92.35
5812;BME280;2932;52.400;9.558;2023-07-28T08:00:30;99903.03;;;20.85;91.05
5812;BME280;2932;52.400;9.558;2023-07-28T08:02:55;99898.00;;;20.96;90.65
5812;BME280;2932;52.400;9.558;2023-07-28T08:05:21;99899.78;;;21.07;90.02
5812;BME280;2932;52.400;9.558;2023-07-28T08:07:46;99908.22;;;21.07;90.24
5812;BME280;2932;52.400;9.558;2023-07-28T08:10:12;99900.78;;;21.16;89.84
5812;BME280;2932;52.400;9.558;2023-07-28T08:12:38;99908.69;;;21.41;89.66
5812;BME280;2932;52.400;9.558;2023-07-28T08:15:03;99908.25;;;21.43;88.46
5812;BME280;2932;52.400;9.558;2023-07-28T08:17:29;99909.41;;;21.61;87.59
5812;BME280;2932;52.400;9.558;2023-07-28T08:19:54;99922.50;;;21.52;86.95
5812;BME280;2932;52.400;9.558;2023-07-28T08:22:19;99926.31;;;21.78;86.67
5812;BME280;2932;52.400;9.558;2023-07-28T08:24:45;99913.19;;;21.71;86.70
5812;BME280;2932;52.400;9.558;2023-07-28T08:27:10;99925.25;;;21.72;86.56
5812;BME280;2932;52.400;9.558;2023-07-28T08:29:35;99924.03;;;21.56;85.97
5812;BME280;2932;52.400;9.558;2023-07-28T08:32:01;99917.84;;;21.61;85.29
5812;BME280;2932;52.400;9.558;2023-07-28T08:34:27;99927.03;;;21.98;84.53
5812;BME280;2932;52.400;9.558;2023-07-28T08:36:52;99920.41;;;21.88;84.53
5812;BME280;2932;52.400;9.558;2023-07-28T08:39:18;99923.69;;;21.87;84.83
5812;BME280;2932;52.400;9.558;2023-07-28T08:41:43;99923.84;;;21.96;84.40
5812;BME280;2932;52.400;9.558;2023-07-28T08:44:08;99926.66;;;22.12;83.85
5812;BME280;2932;52.400;9.558;2023-07-28T08:46:34;99923.41;;;21.98;84.36
5812;BME280;2932;52.400;9.558;2023-07-28T08:49:00;99935.13;;;22.12;83.74
5812;BME280;2932;52.400;9.558;2023-07-28T08:51:26;99928.16;;;22.17;83.37
5812;BME280;2932;52.400;9.558;2023-07-28T08:53:51;99931.34;;;22.48;82.78
5812;BME280;2932;52.400;9.558;2023-07-28T08:56:17;99934.63;;;22.46;81.68
5812;BME280;2932;52.400;9.558;2023-07-28T08:58:44;99939.09;;;22.60;81.61
5812;BME280;2932;52.400;9.558;2023-07-28T09:01:10;99933.94;;;23.00;81.26
5812;BME280;2932;52.400;9.558;2023-07-28T09:03:39;99946.97;;;23.10;79.85
5812;BME280;2932;52.400;9.558;2023-07-28T09:06:06;99944.72;;;23.18;79.25
5812;BME280;2932;52.400;9.558;2023-07-28T09:08:34;99939.28;;;22.82;79.81
5812;BME280;2932;52.400;9.558;2023-07-28T09:11:04;99941.41;;;23.19;79.23
5812;BME280;2932;52.400;9.558;2023-07-28T09:13:39;99946.47;;;23.53;77.61
5812;BME280;2932;52.400;9.558;2023-07-28T09:16:18;99940.00;;;23.40;77.79
5812;BME280;2932;52.400;9.558;2023-07-28T09:18:44;99962.44;;;23.18;78.03
5812;BME280;2932;52.400;9.558;2023-07-28T09:21:19;99954.31;;;23.33;78.44
5812;BME280;2932;52.400;9.558;2023-07-28T09:23:47;99963.34;;;23.15;77.85
5812;BME280;2932;52.400;9.558;2023-07-28T09:26:14;99956.75;;;23.06;78.87
5812;BME280;2932;52.400;9.558;2023-07-28T09:28:39;99953.88;;;23.35;77.43
5812;BME280;2932;52.400;9.558;2023-07-28T09:31:05;99954.38;;;23.58;77.95
5812;BME280;2932;52.400;9.558;2023-07-28T09:33:32;99954.56;;;23.39;76.84
5812;BME280;2932;52.400;9.558;2023-07-28T09:36:08;99947.00;;;23.61;75.90
5812;BME280;2932;52.400;9.558;2023-07-28T09:38:36;99950.50;;;24.03;75.55
5812;BME280;2932;52.400;9.558;2023-07-28T09:41:03;99955.38;;;23.77;75.32
5812;BME280;2932;52.400;9.558;2023-07-28T09:43:31;99944.88;;;23.65;76.04
5812;BME280;2932;52.400;9.558;2023-07-28T09:45:56;99956.28;;;23.61;75.92
5812;BME280;2932;52.400;9.558;2023-07-28T09:48:23;99956.63;;;23.76;77.05
5812;BME280;2932;52.400;9.558;2023-07-28T09:50:49;99958.66;;;23.76;76.55
5812;BME280;2932;52.400;9.558;2023-07-28T09:53:15;99954.78;;;24.08;76.06
5812;BME280;2932;52.400;9.558;2023-07-28T09:55:42;99969.28;;;23.84;75.47
5812;BME280;2932;52.400;9.558;2023-07-28T09:58:10;99960.09;;;24.06;73.93
5812;BME280;2932;52.400;9.558;2023-07-28T10:00:37;99973.13;;;23.90;74.93
5812;BME280;2932;52.400;9.558;2023-07-28T10:03:04;99962.63;;;23.91;74.95
5812;BME280;2932;52.400;9.558;2023-07-28T10:05:31;99962.84;;;23.97;75.61
5812;BME280;2932;52.400;9.558;2023-07-28T10:07:57;99962.97;;;24.40;75.07
5812;BME280;2932;52.400;9.558;2023-07-28T10:10:24;99971.59;;;24.71;71.87
5812;BME280;2932;52.400;9.558;2023-07-28T10:12:52;99959.88;;;24.82;71.13
5812;BME280;2932;52.400;9.558;2023-07-28T10:15:19;99963.38;;;24.64;71.97
5812;BME280;2932;52.400;9.558;2023-07-28T10:17:51;99984.66;;;23.83;73.27
5812;BME280;2932;52.400;9.558;2023-07-28T10:23:01;99973.47;;;23.80;74.38
5812;BME280;2932;52.400;9.558;2023-07-28T10:25:27;99978.78;;;23.90;73.86
5812;BME280;2932;52.400;9.558;2023-07-28T10:27:53;99967.88;;;24.14;73.26
5812;BME280;2932;52.400;9.558;2023-07-28T10:30:18;99976.09;;;24.47;72.68
5812;BME280;2932;52.400;9.558;2023-07-28T10:32:48;99980.44;;;24.39;72.37
5812;BME280;2932;52.400;9.558;2023-07-28T10:37:45;99995.13;;;24.21;73.54
5812;BME280;2932;52.400;9.558;2023-07-28T10:40:30;99994.13;;;24.15;73.38
5812;BME280;2932;52.400;9.558;2023-07-28T10:42:56;100007.38;;;24.31;72.26
5812;BME280;2932;52.400;9.558;2023-07-28T10:45:25;99996.50;;;24.29;72.27
5812;BME280;2932;52.400;9.558;2023-07-28T10:47:52;99990.06;;;24.03;72.58
5812;BME280;2932;52.400;9.558;2023-07-28T10:50:20;99990.09;;;24.50;72.29
5812;BME280;2932;52.400;9.558;2023-07-28T10:52:46;99988.66;;;24.46;71.66
5812;BME280;2932;52.400;9.558;2023-07-28T10:55:24;99990.16;;;24.94;70.64
5812;BME280;2932;52.400;9.558;2023-07-28T10:57:50;99987.44;;;25.03;68.99
5812;BME280;2932;52.400;9.558;2023-07-28T11:00:18;99986.78;;;24.99;69.01
5812;BME280;2932;52.400;9.558;2023-07-28T11:02:55;99991.53;;;24.89;69.60
5812;BME280;2932;52.400;9.558;2023-07-28T11:05:26;99996.63;;;24.94;69.26
5812;BME280;2932;52.400;9.558;2023-07-28T11:07:55;100005.50;;;24.84;70.25
5812;BME280;2932;52.400;9.558;2023-07-28T11:10:21;100003.13;;;24.82;69.80
5812;BME280;2932;52.400;9.558;2023-07-28T11:12:49;99995.47;;;25.05;69.04
5812;BME280;2932;52.400;9.558;2023-07-28T11:15:15;99977.75;;;25.66;68.37
5812;BME280;2932;52.400;9.558;2023-07-28T11:17:47;99982.97;;;25.68;67.52
5812;BME280;2932;52.400;9.558;2023-07-28T11:20:16;99989.38;;;25.59;67.40
5812;BME280;2932;52.400;9.558;2023-07-28T11:22:46;99975.28;;;25.77;68.24
5812;BME280;2932;52.400;9.558;2023-07-28T11:25:12;99981.28;;;25.79;67.84
5812;BME280;2932;52.400;9.558;2023-07-28T11:27:38;99989.66;;;25.61;67.04
5812;BME280;2932;52.400;9.558;2023-07-28T11:30:04;99977.28;;;25.68;66.89
5812;BME280;2932;52.400;9.558;2023-07-28T11:32:31;99975.34;;;26.36;65.91
5812;BME280;2932;52.400;9.558;2023-07-28T11:35:06;99979.66;;;26.09;66.74
5812;BME280;2932;52.400;9.558;2023-07-28T11:37:33;99973.91;;;26.40;66.58
5812;BME280;2932;52.400;9.558;2023-07-28T11:40:00;99966.53;;;25.94;67.00
5812;BME280;2932;52.400;9.558;2023-07-28T11:42:27;99977.75;;;26.06;65.84
5812;BME280;2932;52.400;9.558;2023-07-28T11:44:53;99981.47;;;25.54;67.01
5812;BME280;2932;52.400;9.558;2023-07-28T11:47:19;99981.22;;;26.10;65.93
5812;BME280;2932;52.400;9.558;2023-07-28T11:49:48;99976.75;;;26.86;65.41
5812;BME280;2932;52.400;9.558;2023-07-28T11:52:14;99985.59;;;26.88;63.78
5812;BME280;2932;52.400;9.558;2023-07-28T11:54:40;99979.94;;;26.70;63.88
5812;BME280;2932;52.400;9.558;2023-07-28T11:57:07;100001.41;;;26.12;65.26
5812;BME280;2932;52.400;9.558;2023-07-28T11:59:34;99989.88;;;25.98;65.82
5812;BME280;2932;52.400;9.558;2023-07-28T12:02:02;99980.63;;;26.24;65.87
5812;BME280;2932;52.400;9.558;2023-07-28T12:09:52;99992.38;;;26.54;64.23
5812;BME280;2932;52.400;9.558;2023-07-28T12:12:22;99996.00;;;26.64;62.85
5812;BME280;2932;52.400;9.558;2023-07-28T12:14:49;99988.44;;;26.70;62.15
5812;BME280;2932;52.400;9.558;2023-07-28T12:17:20;100005.00;;;26.71;62.69
5812;BME280;2932;52.400;9.558;2023-07-28T12:19:59;99995.84;;;26.85;61.86
5812;BME280;2932;52.400;9.558;2023-07-28T12:22:28;99995.84;;;27.22;61.41
5812;BME280;2932;52.400;9.558;2023-07-28T12:24:54;100000.63;;;27.07;61.79
5812;BME280;2932;52.400;9.558;2023-07-28T12:27:20;100000.09;;;26.90;62.75
5812;BME280;2932;52.400;9.558;2023-07-28T12:29:49;100010.69;;;26.71;63.22
5812;BME280;2932;52.400;9.558;2023-07-28T12:32:14;100010.50;;;26.84;62.93
5812;BME280;2932;52.400;9.558;2023-07-28T12:34:40;100023.88;;;26.38;63.47
5812;BME280;2932;52.400;9.558;2023-07-28T12:37:06;100021.50;;;26.45;63.20
5812;BME280;2932;52.400;9.558;2023-07-28T12:39:31;100024.81;;;26.44;64.19
5812;BME280;2932;52.400;9.558;2023-07-28T12:41:56;100023.44;;;25.99;64.68
5812;BME280;2932;52.400;9.558;2023-07-28T12:44:22;100025.28;;;26.42;64.57
5812;BME280;2932;52.400;9.558;2023-07-28T12:46:47;100020.63;;;26.67;63.55
5812;BME280;2932;52.400;9.558;2023-07-28T12:49:13;100037.78;;;26.54;63.01
5812;BME280;2932;52.400;9.558;2023-07-28T12:51:40;100023.72;;;26.01;63.55
5812;BME280;2932;52.400;9.558;2023-07-28T12:54:05;100041.56;;;26.11;64.41
5812;BME280;2932;52.400;9.558;2023-07-28T12:56:30;100043.81;;;25.85;64.78
5812;BME280;2932;52.400;9.558;2023-07-28T12:58:56;100047.34;;;25.67;65.62
5812;BME280;2932;52.400;9.558;2023-07-28T13:01:21;100060.53;;;25.39;66.95
5812;BME280;2932;52.400;9.558;2023-07-28T13:03:46;100049.53;;;25.41;67.11
5812;BME280;2932;52.400;9.558;2023-07-28T13:06:12;100056.50;;;25.49;67.31
5812;BME280;2932;52.400;9.558;2023-07-28T13:08:37;100051.34;;;25.79;67.27
5812;BME280;2932;52.400;9.558;2023-07-28T13:11:03;100050.19;;;26.47;65.95
5812;BME280;2932;52.400;9.558;2023-07-28T13:13:28;100053.09;;;26.84;64.65
5812;BME280;2932;52.400;9.558;2023-07-28T13:15:58;100058.41;;;26.36;64.31
5812;BME280;2932;52.400;9.558;2023-07-28T13:18:23;100060.66;;;26.60;63.83
5812;BME280;2932;52.400;9.558;2023-07-28T13:20:50;100042.47;;;26.48;63.20
5812;BME280;2932;52.400;9.558;2023-07-28T13:23:15;100061.19;;;27.04;63.48
5812;BME280;2932;52.400;9.558;2023-07-28T13:25:40;100052.78;;;26.91;62.83
5812;BME280;2932;52.400;9.558;2023-07-28T13:28:06;100034.97;;;26.81;63.66
5812;BME280;2932;52.400;9.558;2023-07-28T13:30:31;100055.03;;;26.96;62.66